createdAt,value
2023-03-15T00:00:43.008Z,2.50
2023-03-15T00:03:14.812Z,2.63
2023-03-15T00:05:44.103Z,2.67
2023-03-15T00:08:12.623Z,2.97
2023-03-15T00:10:42.599Z,2.50
2023-03-15T00:13:11.171Z,2.93
2023-03-15T00:15:46.262Z,2.37
2023-03-15T00:18:16.294Z,2.77
2023-03-15T00:20:44.770Z,2.50
2023-03-15T00:23:13.076Z,2.43
2023-03-15T00:25:41.402Z,2.33
2023-03-15T00:28:09.631Z,2.30
2023-03-15T00:30:37.837Z,2.87
2023-03-15T00:33:06.769Z,2.40
2023-03-15T00:35:40.153Z,2.50
2023-03-15T00:38:08.601Z,2.30
2023-03-15T00:40:37.985Z,2.50
2023-03-15T00:43:06.201Z,2.30
2023-03-15T00:45:34.506Z,2.60
2023-03-15T00:48:02.687Z,2.90
2023-03-15T00:50:30.917Z,2.40
2023-03-15T00:53:00.486Z,2.50
2023-03-15T00:55:28.733Z,2.77
2023-03-15T00:57:58.169Z,2.60
2023-03-15T01:00:27.713Z,3.10
2023-03-15T01:02:56.310Z,2.53
2023-03-15T01:05:26.243Z,3.60
2023-03-15T01:07:54.501Z,2.70
2023-03-15T01:10:24.092Z,2.27
2023-03-15T01:12:52.316Z,2.70
2023-03-15T01:15:20.590Z,2.37
2023-03-15T01:17:48.819Z,2.60
2023-03-15T01:20:17.281Z,2.50
2023-03-15T01:22:45.558Z,2.27
2023-03-15T01:25:13.739Z,2.10
2023-03-15T01:27:43.314Z,2.30
2023-03-15T01:30:12.078Z,2.47
2023-03-15T01:32:40.514Z,1.90
2023-03-15T01:35:09.261Z,2.00
2023-03-15T01:37:37.477Z,1.73
2023-03-15T01:40:06.998Z,2.00
2023-03-15T01:42:35.220Z,2.00
2023-03-15T01:45:04.907Z,1.50
2023-03-15T01:47:33.129Z,1.90
2023-03-15T01:50:03.702Z,1.73
2023-03-15T01:52:35.269Z,1.60
2023-03-15T01:55:06.440Z,1.50
2023-03-15T01:57:36.589Z,1.87
2023-03-15T02:00:11.833Z,1.80
2023-03-15T02:02:46.364Z,2.07
2023-03-15T02:05:17.216Z,1.90
2023-03-15T02:07:49.855Z,2.10
2023-03-15T02:10:19.930Z,2.03
2023-03-15T02:12:49.520Z,2.30
2023-03-15T02:15:19.422Z,2.60
2023-03-15T02:17:48.724Z,3.70
2023-03-15T02:20:27.196Z,3.10
2023-03-15T02:22:56.750Z,3.80
2023-03-15T02:25:34.310Z,3.53
2023-03-15T02:28:05.113Z,3.80
2023-03-15T02:30:33.379Z,4.23
2023-03-15T02:33:03.186Z,4.27
2023-03-15T02:35:33.417Z,4.40
2023-03-15T02:38:02.714Z,4.60
2023-03-15T02:40:31.450Z,4.50
2023-03-15T02:43:02.190Z,4.67
2023-03-15T02:45:33.488Z,4.50
2023-03-15T02:48:02.205Z,4.70
2023-03-15T02:50:30.396Z,5.13
2023-03-15T02:52:58.656Z,4.73
2023-03-15T02:55:26.838Z,5.50
2023-03-15T02:57:55.025Z,5.53
2023-03-15T03:00:23.638Z,6.60
2023-03-15T03:02:53.300Z,5.87
2023-03-15T03:05:21.536Z,5.77
2023-03-15T03:07:51.805Z,5.90
2023-03-15T03:10:20.880Z,6.63
2023-03-15T03:12:53.270Z,5.90
2023-03-15T03:15:21.641Z,6.57
2023-03-15T03:17:49.837Z,6.17
2023-03-15T03:20:19.566Z,5.67
2023-03-15T03:22:48.000Z,5.77
2023-03-15T03:25:16.219Z,6.30
2023-03-15T03:27:44.408Z,6.80
2023-03-15T03:30:13.895Z,6.50
2023-03-15T03:32:42.254Z,6.20
2023-03-15T03:35:10.958Z,6.27
2023-03-15T03:37:40.665Z,6.70
2023-03-15T03:40:09.940Z,6.30
2023-03-15T03:42:38.163Z,5.93
2023-03-15T03:45:06.771Z,5.67
2023-03-15T03:47:34.965Z,6.40
2023-03-15T03:50:03.234Z,6.37
2023-03-15T03:52:31.424Z,6.37
2023-03-15T03:55:00.942Z,6.13
2023-03-15T03:57:29.163Z,7.10
2023-03-15T03:59:58.586Z,6.57
2023-03-15T04:02:26.902Z,5.80
2023-03-15T04:04:55.156Z,6.13
2023-03-15T04:07:23.352Z,5.47
2023-03-15T04:09:51.593Z,6.07
2023-03-15T04:12:21.347Z,6.23
2023-03-15T04:14:49.591Z,5.23
2023-03-15T04:17:17.776Z,5.43
2023-03-15T04:19:46.963Z,6.27
2023-03-15T04:22:15.376Z,6.33
2023-03-15T04:24:43.775Z,6.03
2023-03-15T04:27:14.745Z,6.53
2023-03-15T04:29:44.540Z,7.40
2023-03-15T04:32:23.289Z,7.10
2023-03-15T04:34:51.591Z,6.13
2023-03-15T04:37:26.077Z,7.27
2023-03-15T04:39:54.278Z,6.23
2023-03-15T04:42:22.896Z,6.30
2023-03-15T04:44:53.730Z,6.27
2023-03-15T04:47:22.719Z,6.30
2023-03-15T04:49:50.918Z,6.50
2023-03-15T04:52:19.159Z,7.07
2023-03-15T04:54:47.392Z,6.60
2023-03-15T04:57:15.590Z,6.20
2023-03-15T04:59:43.822Z,6.57
2023-03-15T05:02:13.461Z,6.20
2023-03-15T05:04:41.690Z,6.33
2023-03-15T05:07:09.974Z,6.50
2023-03-15T05:09:39.982Z,5.57
2023-03-15T05:12:08.639Z,6.53
2023-03-15T05:14:36.856Z,6.07
2023-03-15T05:17:05.092Z,5.93
2023-03-15T05:19:35.016Z,5.60
2023-03-15T05:22:03.618Z,6.27
2023-03-15T05:24:32.260Z,6.20
2023-03-15T05:27:00.448Z,5.87
2023-03-15T05:29:28.679Z,6.20
2023-03-15T05:31:56.887Z,5.90
2023-03-15T05:34:25.126Z,6.30
2023-03-15T05:36:54.704Z,6.33
2023-03-15T05:39:24.114Z,5.77
2023-03-15T05:41:52.310Z,5.73
2023-03-15T05:44:20.686Z,5.27
2023-03-15T05:46:48.970Z,6.20
2023-03-15T05:49:17.162Z,6.33
2023-03-15T05:51:45.599Z,5.40
2023-03-15T05:54:15.175Z,6.00
2023-03-15T05:56:43.385Z,5.90
2023-03-15T05:59:11.596Z,6.43
2023-03-15T06:01:39.905Z,5.50
2023-03-15T06:04:08.157Z,5.63
2023-03-15T06:06:36.426Z,5.53
2023-03-15T06:09:04.714Z,5.80
2023-03-15T06:11:34.295Z,6.10
2023-03-15T06:14:02.506Z,6.37
2023-03-15T06:16:30.747Z,5.70
2023-03-15T06:18:58.962Z,5.57
2023-03-15T06:21:27.297Z,5.77
2023-03-15T06:23:55.499Z,5.83
2023-03-15T06:26:23.693Z,5.03
2023-03-15T06:28:53.283Z,6.03
2023-03-15T06:31:21.531Z,5.97
2023-03-15T06:33:49.797Z,6.23
2023-03-15T06:36:18.056Z,6.30
2023-03-15T06:38:46.307Z,5.70
2023-03-15T06:41:15.546Z,5.90
2023-03-15T06:43:44.065Z,6.50
2023-03-15T06:46:19.265Z,10.60
2023-03-15T06:49:09.247Z,6.90
2023-03-15T06:51:41.118Z,6.40
2023-03-15T06:54:09.420Z,6.27
2023-03-15T06:56:38.364Z,6.20
2023-03-15T06:59:07.465Z,6.67
2023-03-15T07:01:37.157Z,6.43
2023-03-15T07:04:07.896Z,6.33
2023-03-15T07:06:36.917Z,6.63
2023-03-15T07:09:05.813Z,5.63
2023-03-15T07:11:34.361Z,5.43
2023-03-15T07:14:02.640Z,5.60
2023-03-15T07:16:30.863Z,5.50
2023-03-15T07:19:00.474Z,5.80
2023-03-15T07:21:29.225Z,5.30
2023-03-15T07:23:57.443Z,5.90
2023-03-15T07:26:25.631Z,5.43
2023-03-15T07:28:53.902Z,5.63
2023-03-15T07:31:22.263Z,5.70
2023-03-15T07:33:51.546Z,4.93
2023-03-15T07:36:22.333Z,5.07
2023-03-15T07:38:50.722Z,4.97
2023-03-15T07:41:18.944Z,4.80
2023-03-15T07:43:47.247Z,4.67
2023-03-15T07:46:15.530Z,4.93
2023-03-15T07:48:43.796Z,5.00
2023-03-15T07:51:12.142Z,4.40
2023-03-15T07:53:41.707Z,4.30
2023-03-15T07:56:09.974Z,4.37
2023-03-15T07:58:38.277Z,4.23
2023-03-15T08:01:06.696Z,4.53
2023-03-15T08:03:34.975Z,4.00
2023-03-15T08:06:03.258Z,4.30
2023-03-15T08:08:31.447Z,4.37
2023-03-15T08:11:01.031Z,4.40
2023-03-15T08:13:29.302Z,3.73
2023-03-15T08:15:57.616Z,4.30
2023-03-15T08:18:28.852Z,4.30
2023-03-15T08:20:57.254Z,4.20
2023-03-15T08:23:25.437Z,3.93
2023-03-15T08:25:53.661Z,5.37
2023-03-15T08:28:23.306Z,4.17
2023-03-15T08:30:51.579Z,3.80
2023-03-15T08:33:19.850Z,4.30
2023-03-15T08:35:48.183Z,4.17
2023-03-15T08:38:16.360Z,4.00
2023-03-15T08:40:44.608Z,4.10
2023-03-15T08:43:12.804Z,4.10
2023-03-15T08:45:59.831Z,4.50
2023-03-15T08:48:28.728Z,3.83
2023-03-15T08:50:57.000Z,4.20
2023-03-15T08:53:25.256Z,3.93
2023-03-15T08:55:53.490Z,4.17
2023-03-15T08:58:21.948Z,4.10
2023-03-15T09:00:52.014Z,3.23
2023-03-15T09:03:20.238Z,4.07
2023-03-15T09:05:48.433Z,4.13
2023-03-15T09:08:21.091Z,3.57
2023-03-15T09:10:49.435Z,3.60
2023-03-15T09:13:17.664Z,3.63
2023-03-15T09:15:45.910Z,3.90
2023-03-15T09:18:15.469Z,3.50
2023-03-15T09:20:43.696Z,3.20
2023-03-15T09:23:15.226Z,3.83
2023-03-15T09:25:43.793Z,4.20
2023-03-15T09:28:12.773Z,3.20
2023-03-15T09:30:41.312Z,3.07
2023-03-15T09:33:10.244Z,3.10
2023-03-15T09:35:39.937Z,2.63
2023-03-15T09:38:08.156Z,3.30
2023-03-15T09:40:40.353Z,3.30
2023-03-15T09:43:17.594Z,3.70
2023-03-15T09:45:55.794Z,2.87
2023-03-15T09:48:27.306Z,2.80
2023-03-15T09:51:00.878Z,3.40
2023-03-15T09:53:31.949Z,3.53
2023-03-15T09:56:00.254Z,3.47
2023-03-15T09:58:32.708Z,3.00
2023-03-15T10:01:03.483Z,2.53
2023-03-15T10:03:35.878Z,2.77
2023-03-15T10:06:09.333Z,2.63
2023-03-15T10:08:37.596Z,2.80
2023-03-15T10:11:08.701Z,3.47
2023-03-15T10:13:45.185Z,2.77
2023-03-15T10:16:21.885Z,2.90
2023-03-15T10:18:56.393Z,2.20
2023-03-15T10:21:33.665Z,2.43
2023-03-15T10:24:05.611Z,2.23
2023-03-15T10:26:37.579Z,2.40
2023-03-15T10:29:10.864Z,3.20
2023-03-15T10:31:44.648Z,2.30
2023-03-15T10:34:13.202Z,3.00
2023-03-15T10:36:46.753Z,2.77
2023-03-15T10:39:15.237Z,3.20
2023-03-15T10:41:46.062Z,2.47
2023-03-15T10:44:16.921Z,2.93
2023-03-15T10:47:04.625Z,2.60
2023-03-15T10:49:36.499Z,2.07
2023-03-15T10:52:06.620Z,3.53
2023-03-15T10:54:35.419Z,2.10
2023-03-15T10:57:05.817Z,2.00
2023-03-15T10:59:35.642Z,2.50
2023-03-15T11:02:17.164Z,2.50
2023-03-15T11:04:49.166Z,2.40
2023-03-15T11:07:18.868Z,2.60
2023-03-15T11:09:52.832Z,2.13
2023-03-15T11:12:24.306Z,2.07
2023-03-15T11:14:53.723Z,2.37
2023-03-15T11:17:23.092Z,2.43
2023-03-15T11:19:55.927Z,2.40
2023-03-15T11:22:25.736Z,2.10
2023-03-15T11:24:55.612Z,1.80
2023-03-15T11:27:25.022Z,2.30
2023-03-15T11:29:54.284Z,1.73
2023-03-15T11:32:23.845Z,1.40
2023-03-15T11:34:56.078Z,1.73
2023-03-15T11:37:27.173Z,2.30
2023-03-15T11:40:08.912Z,1.83
2023-03-15T11:42:42.143Z,2.30
2023-03-15T11:45:14.849Z,1.57
2023-03-15T11:47:45.026Z,1.60
2023-03-15T11:50:15.022Z,1.70
2023-03-15T11:52:45.079Z,1.60
2023-03-15T11:55:18.764Z,1.90
2023-03-15T11:57:48.430Z,1.37
2023-03-15T12:00:19.474Z,1.40
2023-03-15T12:02:50.912Z,2.03
2023-03-15T12:05:33.962Z,1.80
2023-03-15T12:08:18.474Z,1.60
2023-03-15T12:10:47.521Z,1.87
2023-03-15T12:13:20.149Z,1.60
2023-03-15T12:15:51.915Z,2.10
2023-03-15T12:18:24.507Z,1.50
2023-03-15T12:20:54.712Z,1.37
2023-03-15T12:23:32.748Z,1.80
2023-03-15T12:26:06.522Z,1.47
2023-03-15T12:28:36.863Z,1.73
2023-03-15T12:31:06.751Z,1.37
2023-03-15T12:33:45.181Z,1.60
2023-03-15T12:36:18.068Z,1.53
2023-03-15T12:38:56.007Z,1.43
2023-03-15T12:41:38.907Z,1.80
2023-03-15T12:44:20.175Z,1.87
2023-03-15T12:46:55.710Z,1.67
2023-03-15T12:49:31.524Z,2.10
2023-03-15T12:52:01.102Z,1.53
2023-03-15T12:54:33.285Z,1.30
2023-03-15T12:57:03.050Z,1.77
2023-03-15T12:59:34.168Z,1.57
2023-03-15T13:02:03.177Z,1.20
2023-03-15T13:04:32.183Z,1.40
2023-03-15T13:07:08.629Z,1.57
2023-03-15T13:09:49.318Z,1.80
2023-03-15T13:12:20.456Z,1.60
2023-03-15T13:14:51.442Z,1.63
2023-03-15T13:17:26.984Z,1.90
2023-03-15T13:19:57.668Z,1.70
2023-03-15T13:22:28.559Z,1.47
2023-03-15T13:25:00.866Z,1.37
2023-03-15T13:27:35.299Z,1.40
2023-03-15T13:30:04.518Z,1.90
2023-03-15T13:32:32.802Z,1.60
2023-03-15T13:35:02.182Z,1.50
2023-03-15T13:37:30.389Z,1.53
2023-03-15T13:40:01.982Z,1.70
2023-03-15T13:42:30.271Z,1.67
2023-03-15T13:45:05.887Z,1.60
2023-03-15T13:47:35.560Z,1.27
2023-03-15T13:50:17.737Z,1.33
2023-03-15T13:52:46.124Z,1.60
2023-03-15T13:55:16.505Z,1.70
2023-03-15T13:57:44.861Z,1.80
2023-03-15T14:00:17.817Z,1.80
2023-03-15T14:02:48.711Z,1.70
2023-03-15T14:05:19.064Z,1.67
2023-03-15T14:07:48.517Z,1.60
2023-03-15T14:10:30.963Z,2.00
2023-03-15T14:12:59.865Z,1.73
2023-03-15T14:15:36.305Z,1.70
2023-03-15T14:18:05.643Z,2.00
2023-03-15T14:20:37.358Z,1.50
2023-03-15T14:23:06.669Z,1.50
2023-03-15T14:25:37.720Z,1.60
2023-03-15T14:28:06.485Z,1.47
2023-03-15T14:30:36.836Z,1.23
2023-03-15T14:33:07.439Z,1.70
2023-03-15T14:35:43.116Z,1.63
2023-03-15T14:38:17.387Z,1.60
2023-03-15T14:40:47.387Z,1.20
2023-03-15T14:43:15.669Z,1.50
2023-03-15T14:45:44.714Z,1.10
2023-03-15T14:48:15.231Z,1.13
2023-03-15T14:50:45.767Z,1.60
2023-03-15T14:53:16.474Z,1.37
2023-03-15T14:55:44.928Z,1.17
2023-03-15T14:58:15.296Z,1.53
2023-03-15T15:00:44.010Z,0.83
2023-03-15T15:03:16.604Z,1.20
2023-03-15T15:05:44.875Z,1.40
2023-03-15T15:08:14.012Z,1.57
2023-03-15T15:10:42.683Z,1.30
2023-03-15T15:13:14.545Z,1.60
2023-03-15T15:15:55.246Z,1.37
2023-03-15T15:18:24.800Z,1.73
2023-03-15T15:20:55.329Z,1.10
2023-03-15T15:23:24.581Z,1.30
2023-03-15T15:25:53.615Z,1.40
2023-03-15T15:28:34.121Z,1.23
2023-03-15T15:31:04.829Z,1.40
2023-03-15T15:33:33.974Z,1.20
2023-03-15T15:36:02.488Z,1.20
2023-03-15T15:38:38.055Z,1.30
2023-03-15T15:41:06.686Z,1.57
2023-03-15T15:43:34.937Z,0.73
2023-03-15T15:46:05.797Z,1.07
2023-03-15T15:48:34.070Z,1.30
2023-03-15T15:51:02.293Z,1.43
2023-03-15T15:53:32.262Z,1.17
2023-03-15T15:56:00.992Z,1.07
2023-03-15T15:58:29.253Z,1.30
2023-03-15T16:00:57.445Z,1.60
2023-03-15T16:03:27.895Z,1.53
2023-03-15T16:05:56.183Z,1.40
2023-03-15T16:08:25.662Z,1.43
2023-03-15T16:10:53.906Z,1.60
2023-03-15T16:13:22.160Z,1.17
2023-03-15T16:15:50.375Z,1.33
2023-03-15T16:18:20.834Z,1.40
2023-03-15T16:20:50.479Z,1.50
2023-03-15T16:23:22.319Z,1.40
2023-03-15T16:25:51.818Z,1.30
2023-03-15T16:28:20.164Z,1.67
2023-03-15T16:30:48.576Z,1.30
2023-03-15T16:33:17.486Z,1.13
2023-03-15T16:35:46.204Z,1.40
2023-03-15T16:38:16.976Z,1.17
2023-03-15T16:40:46.374Z,1.17
2023-03-15T16:43:15.095Z,1.17
2023-03-15T16:45:43.774Z,2.60
2023-03-15T16:48:12.697Z,1.03
2023-03-15T16:50:41.080Z,1.10
2023-03-15T16:53:11.179Z,1.60
2023-03-15T16:55:40.818Z,1.70
2023-03-15T16:58:14.961Z,1.43
2023-03-15T17:00:46.610Z,1.43
2023-03-15T17:03:15.112Z,1.87
2023-03-15T17:05:44.451Z,1.53
2023-03-15T17:08:14.015Z,1.40
2023-03-15T17:10:43.949Z,1.70
2023-03-15T17:13:13.262Z,1.30
2023-03-15T17:15:41.572Z,3.67
2023-03-15T17:18:15.684Z,2.17
2023-03-15T17:20:44.054Z,2.60
2023-03-15T17:23:12.605Z,4.07
2023-03-15T17:25:41.185Z,3.20
2023-03-15T17:28:11.277Z,2.27
2023-03-15T17:30:40.033Z,1.53
2023-03-15T17:33:08.333Z,2.20
2023-03-15T17:35:37.887Z,2.30
2023-03-15T17:38:06.868Z,3.43
2023-03-15T17:40:36.642Z,2.10
2023-03-15T17:43:06.253Z,2.47
2023-03-15T17:45:36.209Z,5.03
2023-03-15T17:48:04.417Z,3.30
2023-03-15T17:50:33.531Z,3.73
2023-03-15T17:53:02.731Z,4.27
2023-03-15T17:55:34.356Z,3.27
2023-03-15T17:58:02.705Z,1.70
2023-03-15T18:00:32.548Z,3.50
2023-03-15T18:03:02.583Z,1.87
2023-03-15T18:05:31.400Z,1.70
2023-03-15T18:08:00.541Z,1.80
2023-03-15T18:10:32.221Z,1.80
2023-03-15T18:13:00.550Z,2.00
2023-03-15T18:15:28.804Z,2.20
2023-03-15T18:17:58.908Z,3.90
2023-03-15T18:20:28.671Z,3.70
2023-03-15T18:22:56.947Z,6.50
2023-03-15T18:25:26.599Z,2.77
2023-03-15T18:27:55.082Z,2.73
2023-03-15T18:30:24.582Z,5.33
2023-03-15T18:32:53.783Z,4.37
2023-03-15T18:35:23.478Z,4.30
2023-03-15T18:37:54.084Z,3.30
2023-03-15T18:40:22.701Z,3.03
2023-03-15T18:42:54.559Z,2.27
2023-03-15T18:45:26.452Z,2.50
2023-03-15T18:47:55.015Z,2.47
2023-03-15T18:50:23.267Z,2.60
2023-03-15T18:52:52.883Z,2.73
2023-03-15T18:55:30.049Z,3.80
2023-03-15T18:57:58.345Z,4.23
2023-03-15T19:00:28.436Z,3.83
2023-03-15T19:02:57.350Z,4.13
2023-03-15T19:05:26.064Z,2.50
2023-03-15T19:07:55.726Z,3.03
2023-03-15T19:10:24.559Z,2.90
2023-03-15T19:12:53.175Z,3.17
2023-03-15T19:15:24.850Z,3.23
2023-03-15T19:17:55.243Z,4.93
2023-03-15T19:20:24.537Z,4.27
2023-03-15T19:22:53.362Z,5.83
2023-03-15T19:25:23.107Z,7.63
2023-03-15T19:27:51.381Z,16.80
2023-03-15T19:30:22.145Z,7.20
2023-03-15T19:32:50.758Z,6.87
2023-03-15T19:35:19.716Z,7.27
2023-03-15T19:37:48.468Z,5.97
2023-03-15T19:40:17.202Z,6.63
2023-03-15T19:42:48.497Z,5.83
2023-03-15T19:45:16.940Z,7.47
2023-03-15T19:47:45.461Z,7.37
2023-03-15T19:50:14.444Z,7.47
2023-03-15T19:52:46.022Z,5.03
2023-03-15T19:55:14.798Z,5.30
2023-03-15T19:57:43.183Z,4.93
2023-03-15T20:00:14.357Z,3.43
2023-03-15T20:02:42.920Z,4.67
2023-03-15T20:05:12.063Z,5.50
2023-03-15T20:07:40.655Z,5.30
2023-03-15T20:10:10.160Z,5.33
2023-03-15T20:12:38.988Z,4.70
2023-03-15T20:15:10.002Z,4.50
2023-03-15T20:17:40.032Z,5.73
2023-03-15T20:20:10.999Z,6.63
2023-03-15T20:22:41.331Z,6.53
2023-03-15T20:25:10.765Z,6.97
2023-03-15T20:27:39.071Z,6.10
2023-03-15T20:30:07.992Z,5.50
2023-03-15T20:32:36.487Z,5.50
2023-03-15T20:35:09.200Z,6.03
2023-03-15T20:37:39.770Z,7.40
2023-03-15T20:40:09.552Z,8.70
2023-03-15T20:42:38.146Z,5.70
2023-03-15T20:45:07.254Z,5.60
2023-03-15T20:47:35.631Z,6.37
2023-03-15T20:50:03.942Z,6.70
2023-03-15T20:52:43.449Z,5.90
2023-03-15T20:55:12.211Z,5.70
2023-03-15T20:57:42.666Z,7.10
2023-03-15T21:00:17.940Z,10.20
2023-03-15T21:02:46.870Z,7.10
2023-03-15T21:05:16.187Z,8.50
2023-03-15T21:07:46.554Z,6.13
2023-03-15T21:10:15.236Z,6.83
2023-03-15T21:12:43.925Z,5.80
2023-03-15T21:15:15.338Z,6.83
2023-03-15T21:17:43.594Z,7.43
2023-03-15T21:20:15.321Z,6.93
2023-03-15T21:22:43.868Z,9.97
2023-03-15T21:25:13.466Z,7.30
2023-03-15T21:27:41.859Z,6.60
2023-03-15T21:30:13.905Z,6.97
2023-03-15T21:32:42.916Z,7.63
2023-03-15T21:35:11.397Z,7.70
2023-03-15T21:37:40.230Z,7.20
2023-03-15T21:40:09.333Z,7.10
2023-03-15T21:42:39.058Z,7.30
2023-03-15T21:45:08.407Z,6.63
2023-03-15T21:47:36.832Z,6.07
2023-03-15T21:50:05.132Z,3.80
2023-03-15T21:52:33.808Z,3.60
2023-03-15T21:55:02.066Z,3.80
2023-03-15T21:57:30.344Z,4.80
2023-03-15T21:59:59.917Z,4.43
2023-03-15T22:02:28.127Z,5.53
2023-03-15T22:04:56.467Z,7.43
2023-03-15T22:07:24.802Z,7.07
2023-03-15T22:09:53.121Z,4.30
2023-03-15T22:12:21.434Z,7.70
2023-03-15T22:15:00.001Z,9.10
2023-03-15T22:17:34.844Z,5.87
2023-03-15T22:20:05.187Z,7.07
2023-03-15T22:22:33.462Z,9.50
2023-03-15T22:25:01.671Z,12.50
2023-03-15T22:27:29.906Z,19.20
2023-03-15T22:29:58.142Z,14.93
2023-03-15T22:32:26.421Z,8.67
2023-03-15T22:34:56.104Z,7.93
2023-03-15T22:37:24.463Z,12.40
2023-03-15T22:39:52.710Z,10.63
2023-03-15T22:42:20.913Z,6.13
2023-03-15T22:44:49.137Z,5.27
2023-03-15T22:47:17.351Z,4.37
2023-03-15T22:49:45.574Z,4.13
2023-03-15T22:52:15.275Z,4.43
2023-03-15T22:54:43.734Z,4.30
2023-03-15T22:57:12.350Z,11.43
2023-03-15T22:59:40.755Z,10.07
2023-03-15T23:02:09.067Z,4.63
2023-03-15T23:04:37.335Z,5.43
2023-03-15T23:07:05.600Z,4.60
2023-03-15T23:09:35.631Z,4.60
2023-03-15T23:12:03.880Z,4.93
2023-03-15T23:14:32.360Z,5.47
2023-03-15T23:17:03.199Z,4.67
2023-03-15T23:19:33.942Z,5.13
2023-03-15T23:22:04.154Z,5.13
2023-03-15T23:24:33.905Z,4.93
2023-03-15T23:27:04.554Z,5.53
2023-03-15T23:29:40.672Z,5.47
2023-03-15T23:32:15.486Z,5.43
2023-03-15T23:34:43.704Z,5.53
2023-03-15T23:37:14.909Z,6.27
2023-03-15T23:39:43.238Z,5.33
2023-03-15T23:42:13.756Z,5.77
2023-03-15T23:44:42.083Z,5.57
2023-03-15T23:47:10.546Z,5.97
2023-03-15T23:49:38.809Z,5.13
2023-03-15T23:52:07.175Z,5.60
2023-03-15T23:54:40.216Z,5.20
2023-03-15T23:57:08.602Z,4.53
2023-03-15T23:59:38.337Z,5.60
